sensor_id;sensor_type;location;lat;lon;timestamp;P1;durP1;ratioP1;P2;durP2;ratioP2
10162;SDS011;5123;52.556;13.384;2023-04-15T00:01:19;33.60;;;24.77;;
10162;SDS011;5123;52.556;13.384;2023-04-15T00:03:53;33.33;;;25.33;;
10162;SDS011;5123;52.556;13.384;2023-04-15T00:06:27;32.17;;;24.37;;
10162;SDS011;5123;52.556;13.384;2023-04-15T00:09:02;33.13;;;25.23;;
10162;SDS011;5123;52.556;13.384;2023-04-15T00:11:41;32.60;;;24.83;;
10162;SDS011;5123;52.556;13.384;2023-04-15T00:14:24;34.07;;;24.57;;
10162;SDS011;5123;52.556;13.384;2023-04-15T00:16:57;34.20;;;25.47;;
10162;SDS011;5123;52.556;13.384;2023-04-15T00:19:32;35.13;;;25.30;;
10162;SDS011;5123;52.556;13.384;2023-04-15T00:22:05;33.90;;;25.03;;
10162;SDS011;5123;52.556;13.384;2023-04-15T00:24:38;32.13;;;23.57;;
10162;SDS011;5123;52.556;13.384;2023-04-15T00:27:15;34.60;;;24.73;;
10162;SDS011;5123;52.556;13.384;2023-04-15T00:29:47;35.03;;;24.33;;
10162;SDS011;5123;52.556;13.384;2023-04-15T00:32:20;36.13;;;25.53;;
10162;SDS011;5123;52.556;13.384;2023-04-15T00:34:53;36.57;;;26.30;;
10162;SDS011;5123;52.556;13.384;2023-04-15T00:37:30;35.93;;;24.70;;
10162;SDS011;5123;52.556;13.384;2023-04-15T00:40:06;37.97;;;27.60;;
10162;SDS011;5123;52.556;13.384;2023-04-15T00:42:47;36.27;;;27.03;;
10162;SDS011;5123;52.556;13.384;2023-04-15T00:45:20;36.97;;;25.47;;
10162;SDS011;5123;52.556;13.384;2023-04-15T00:47:55;34.33;;;23.93;;
10162;SDS011;5123;52.556;13.384;2023-04-15T00:50:27;38.00;;;25.93;;
10162;SDS011;5123;52.556;13.384;2023-04-15T00:53:03;37.63;;;27.50;;
10162;SDS011;5123;52.556;13.384;2023-04-15T00:55:36;36.50;;;25.47;;
10162;SDS011;5123;52.556;13.384;2023-04-15T00:58:12;38.00;;;27.07;;
10162;SDS011;5123;52.556;13.384;2023-04-15T01:00:48;38.93;;;27.33;;
10162;SDS011;5123;52.556;13.384;2023-04-15T01:03:24;40.97;;;29.20;;
10162;SDS011;5123;52.556;13.384;2023-04-15T01:05:57;38.60;;;27.90;;
10162;SDS011;5123;52.556;13.384;2023-04-15T01:08:34;37.37;;;25.90;;
10162;SDS011;5123;52.556;13.384;2023-04-15T01:11:09;39.27;;;26.53;;
10162;SDS011;5123;52.556;13.384;2023-04-15T01:13:43;38.23;;;26.27;;
10162;SDS011;5123;52.556;13.384;2023-04-15T01:16:17;38.90;;;27.43;;
10162;SDS011;5123;52.556;13.384;2023-04-15T01:18:49;40.93;;;26.77;;
10162;SDS011;5123;52.556;13.384;2023-04-15T01:21:23;40.07;;;29.07;;
10162;SDS011;5123;52.556;13.384;2023-04-15T01:23:55;39.77;;;27.47;;
10162;SDS011;5123;52.556;13.384;2023-04-15T01:26:33;39.10;;;28.97;;
10162;SDS011;5123;52.556;13.384;2023-04-15T01:29:05;42.43;;;29.60;;
10162;SDS011;5123;52.556;13.384;2023-04-15T01:31:38;45.83;;;30.77;;
10162;SDS011;5123;52.556;13.384;2023-04-15T01:34:11;41.00;;;25.93;;
10162;SDS011;5123;52.556;13.384;2023-04-15T01:36:44;43.87;;;28.60;;
10162;SDS011;5123;52.556;13.384;2023-04-15T01:39:17;40.43;;;28.03;;
10162;SDS011;5123;52.556;13.384;2023-04-15T01:41:51;43.87;;;29.53;;
10162;SDS011;5123;52.556;13.384;2023-04-15T01:44:26;45.40;;;29.63;;
10162;SDS011;5123;52.556;13.384;2023-04-15T01:46:59;43.90;;;28.97;;
10162;SDS011;5123;52.556;13.384;2023-04-15T01:49:32;44.47;;;30.37;;
10162;SDS011;5123;52.556;13.384;2023-04-15T01:52:05;45.93;;;30.80;;
10162;SDS011;5123;52.556;13.384;2023-04-15T01:54:38;45.10;;;29.37;;
10162;SDS011;5123;52.556;13.384;2023-04-15T01:57:12;49.67;;;31.23;;
10162;SDS011;5123;52.556;13.384;2023-04-15T01:59:45;46.43;;;29.60;;
10162;SDS011;5123;52.556;13.384;2023-04-15T02:02:18;45.57;;;30.40;;
10162;SDS011;5123;52.556;13.384;2023-04-15T02:04:55;44.77;;;28.77;;
10162;SDS011;5123;52.556;13.384;2023-04-15T02:07:31;45.27;;;30.37;;
10162;SDS011;5123;52.556;13.384;2023-04-15T02:10:04;43.63;;;28.23;;
10162;SDS011;5123;52.556;13.384;2023-04-15T02:12:38;44.87;;;30.00;;
10162;SDS011;5123;52.556;13.384;2023-04-15T02:15:11;41.80;;;28.00;;
10162;SDS011;5123;52.556;13.384;2023-04-15T02:17:44;42.37;;;29.73;;
10162;SDS011;5123;52.556;13.384;2023-04-15T02:20:21;41.17;;;28.87;;
10162;SDS011;5123;52.556;13.384;2023-04-15T02:22:56;42.63;;;29.70;;
10162;SDS011;5123;52.556;13.384;2023-04-15T02:25:29;42.23;;;27.83;;
10162;SDS011;5123;52.556;13.384;2023-04-15T02:28:04;44.80;;;29.30;;
10162;SDS011;5123;52.556;13.384;2023-04-15T02:30:37;44.10;;;28.40;;
10162;SDS011;5123;52.556;13.384;2023-04-15T02:33:11;41.83;;;28.77;;
10162;SDS011;5123;52.556;13.384;2023-04-15T02:35:44;45.97;;;29.53;;
10162;SDS011;5123;52.556;13.384;2023-04-15T02:38:16;42.37;;;28.30;;
10162;SDS011;5123;52.556;13.384;2023-04-15T02:40:49;41.93;;;28.77;;
10162;SDS011;5123;52.556;13.384;2023-04-15T02:43:24;44.07;;;28.57;;
10162;SDS011;5123;52.556;13.384;2023-04-15T02:45:57;44.23;;;29.27;;
10162;SDS011;5123;52.556;13.384;2023-04-15T02:48:32;45.87;;;29.40;;
10162;SDS011;5123;52.556;13.384;2023-04-15T02:51:11;46.63;;;29.57;;
10162;SDS011;5123;52.556;13.384;2023-04-15T02:53:44;44.53;;;29.40;;
10162;SDS011;5123;52.556;13.384;2023-04-15T02:56:17;49.43;;;30.17;;
10162;SDS011;5123;52.556;13.384;2023-04-15T02:58:51;41.50;;;28.43;;
10162;SDS011;5123;52.556;13.384;2023-04-15T03:01:27;43.10;;;28.93;;
10162;SDS011;5123;52.556;13.384;2023-04-15T03:04:01;43.57;;;29.80;;
10162;SDS011;5123;52.556;13.384;2023-04-15T03:06:35;42.00;;;28.27;;
10162;SDS011;5123;52.556;13.384;2023-04-15T03:09:07;40.60;;;27.63;;
10162;SDS011;5123;52.556;13.384;2023-04-15T03:11:40;41.17;;;28.43;;
10162;SDS011;5123;52.556;13.384;2023-04-15T03:14:15;42.77;;;28.43;;
10162;SDS011;5123;52.556;13.384;2023-04-15T03:16:47;42.67;;;28.53;;
10162;SDS011;5123;52.556;13.384;2023-04-15T03:19:21;41.87;;;27.57;;
10162;SDS011;5123;52.556;13.384;2023-04-15T03:21:54;40.17;;;28.07;;
10162;SDS011;5123;52.556;13.384;2023-04-15T03:24:26;40.33;;;27.47;;
10162;SDS011;5123;52.556;13.384;2023-04-15T03:27:00;41.53;;;27.40;;
10162;SDS011;5123;52.556;13.384;2023-04-15T03:29:35;39.60;;;27.13;;
10162;SDS011;5123;52.556;13.384;2023-04-15T03:32:08;42.73;;;27.67;;
10162;SDS011;5123;52.556;13.384;2023-04-15T03:34:41;44.10;;;27.70;;
10162;SDS011;5123;52.556;13.384;2023-04-15T03:37:14;41.07;;;28.77;;
10162;SDS011;5123;52.556;13.384;2023-04-15T03:39:47;38.93;;;26.93;;
10162;SDS011;5123;52.556;13.384;2023-04-15T03:42:20;41.53;;;27.70;;
10162;SDS011;5123;52.556;13.384;2023-04-15T03:45:00;36.53;;;25.37;;
10162;SDS011;5123;52.556;13.384;2023-04-15T03:47:33;36.87;;;25.97;;
10162;SDS011;5123;52.556;13.384;2023-04-15T03:50:07;40.53;;;27.23;;
10162;SDS011;5123;52.556;13.384;2023-04-15T03:52:40;39.77;;;26.33;;
10162;SDS011;5123;52.556;13.384;2023-04-15T03:55:13;40.43;;;27.10;;
10162;SDS011;5123;52.556;13.384;2023-04-15T03:57:46;37.33;;;26.10;;
10162;SDS011;5123;52.556;13.384;2023-04-15T04:00:20;35.23;;;25.70;;
10162;SDS011;5123;52.556;13.384;2023-04-15T04:02:53;39.37;;;26.73;;
10162;SDS011;5123;52.556;13.384;2023-04-15T04:05:26;35.60;;;25.80;;
10162;SDS011;5123;52.556;13.384;2023-04-15T04:07:59;37.40;;;26.77;;
10162;SDS011;5123;52.556;13.384;2023-04-15T04:10:32;39.73;;;26.40;;
10162;SDS011;5123;52.556;13.384;2023-04-15T04:13:05;34.80;;;24.90;;
10162;SDS011;5123;52.556;13.384;2023-04-15T04:15:39;38.53;;;27.03;;
10162;SDS011;5123;52.556;13.384;2023-04-15T04:18:12;36.83;;;25.70;;
10162;SDS011;5123;52.556;13.384;2023-04-15T04:20:45;34.93;;;26.23;;
10162;SDS011;5123;52.556;13.384;2023-04-15T04:23:17;39.00;;;26.20;;
10162;SDS011;5123;52.556;13.384;2023-04-15T04:25:50;37.50;;;26.00;;
10162;SDS011;5123;52.556;13.384;2023-04-15T04:28:23;33.50;;;25.00;;
10162;SDS011;5123;52.556;13.384;2023-04-15T04:30:58;36.93;;;25.73;;
10162;SDS011;5123;52.556;13.384;2023-04-15T04:33:30;35.63;;;25.73;;
10162;SDS011;5123;52.556;13.384;2023-04-15T04:36:04;34.97;;;24.80;;
10162;SDS011;5123;52.556;13.384;2023-04-15T04:38:37;37.47;;;25.80;;
10162;SDS011;5123;52.556;13.384;2023-04-15T04:41:09;33.43;;;24.50;;
10162;SDS011;5123;52.556;13.384;2023-04-15T04:43:42;33.63;;;24.70;;
10162;SDS011;5123;52.556;13.384;2023-04-15T04:46:17;34.67;;;25.27;;
10162;SDS011;5123;52.556;13.384;2023-04-15T04:48:50;34.03;;;24.50;;
10162;SDS011;5123;52.556;13.384;2023-04-15T04:51:22;36.63;;;24.97;;
10162;SDS011;5123;52.556;13.384;2023-04-15T04:53:56;35.97;;;24.57;;
10162;SDS011;5123;52.556;13.384;2023-04-15T04:56:29;35.03;;;25.37;;
10162;SDS011;5123;52.556;13.384;2023-04-15T04:59:02;33.10;;;24.77;;
10162;SDS011;5123;52.556;13.384;2023-04-15T05:01:36;35.20;;;24.67;;
10162;SDS011;5123;52.556;13.384;2023-04-15T05:04:09;32.03;;;24.03;;
10162;SDS011;5123;52.556;13.384;2023-04-15T05:06:42;32.60;;;25.10;;
10162;SDS011;5123;52.556;13.384;2023-04-15T05:09:15;31.60;;;23.70;;
10162;SDS011;5123;52.556;13.384;2023-04-15T05:11:48;32.60;;;24.30;;
10162;SDS011;5123;52.556;13.384;2023-04-15T05:14:24;31.07;;;22.30;;
10162;SDS011;5123;52.556;13.384;2023-04-15T05:16:59;29.43;;;22.93;;
10162;SDS011;5123;52.556;13.384;2023-04-15T05:19:32;33.77;;;23.30;;
10162;SDS011;5123;52.556;13.384;2023-04-15T05:22:05;30.47;;;22.73;;
10162;SDS011;5123;52.556;13.384;2023-04-15T05:24:38;28.00;;;21.97;;
10162;SDS011;5123;52.556;13.384;2023-04-15T05:27:11;29.37;;;23.07;;
10162;SDS011;5123;52.556;13.384;2023-04-15T05:29:44;27.60;;;21.90;;
10162;SDS011;5123;52.556;13.384;2023-04-15T05:32:19;27.93;;;21.67;;
10162;SDS011;5123;52.556;13.384;2023-04-15T05:34:52;32.30;;;23.83;;
10162;SDS011;5123;52.556;13.384;2023-04-15T05:37:25;27.57;;;21.10;;
10162;SDS011;5123;52.556;13.384;2023-04-15T05:39:58;24.80;;;21.23;;
10162;SDS011;5123;52.556;13.384;2023-04-15T05:42:31;30.50;;;21.37;;
10162;SDS011;5123;52.556;13.384;2023-04-15T05:45:07;27.13;;;20.87;;
10162;SDS011;5123;52.556;13.384;2023-04-15T05:47:41;27.70;;;21.70;;
10162;SDS011;5123;52.556;13.384;2023-04-15T05:50:14;27.60;;;20.43;;
10162;SDS011;5123;52.556;13.384;2023-04-15T05:52:47;26.03;;;21.20;;
10162;SDS011;5123;52.556;13.384;2023-04-15T05:55:20;27.30;;;20.57;;
10162;SDS011;5123;52.556;13.384;2023-04-15T05:57:53;24.90;;;21.17;;
10162;SDS011;5123;52.556;13.384;2023-04-15T06:00:26;26.17;;;20.07;;
10162;SDS011;5123;52.556;13.384;2023-04-15T06:03:05;24.57;;;20.73;;
10162;SDS011;5123;52.556;13.384;2023-04-15T06:05:40;24.10;;;20.13;;
10162;SDS011;5123;52.556;13.384;2023-04-15T06:08:15;24.57;;;20.30;;
10162;SDS011;5123;52.556;13.384;2023-04-15T06:10:48;23.07;;;18.87;;
10162;SDS011;5123;52.556;13.384;2023-04-15T06:13:21;22.13;;;18.77;;
10162;SDS011;5123;52.556;13.384;2023-04-15T06:15:54;23.97;;;19.73;;
10162;SDS011;5123;52.556;13.384;2023-04-15T06:18:28;20.20;;;17.53;;
10162;SDS011;5123;52.556;13.384;2023-04-15T06:21:01;20.67;;;18.17;;
10162;SDS011;5123;52.556;13.384;2023-04-15T06:23:34;21.93;;;18.93;;
10162;SDS011;5123;52.556;13.384;2023-04-15T06:26:07;21.57;;;18.13;;
10162;SDS011;5123;52.556;13.384;2023-04-15T06:28:40;20.77;;;18.57;;
10162;SDS011;5123;52.556;13.384;2023-04-15T06:31:13;19.70;;;17.20;;
10162;SDS011;5123;52.556;13.384;2023-04-15T06:33:47;19.90;;;17.73;;
10162;SDS011;5123;52.556;13.384;2023-04-15T06:36:21;20.40;;;18.03;;
10162;SDS011;5123;52.556;13.384;2023-04-15T06:38:53;19.80;;;15.87;;
10162;SDS011;5123;52.556;13.384;2023-04-15T06:41:27;17.57;;;15.77;;
10162;SDS011;5123;52.556;13.384;2023-04-15T06:43:59;21.17;;;16.83;;
10162;SDS011;5123;52.556;13.384;2023-04-15T06:46:34;16.80;;;15.00;;
10162;SDS011;5123;52.556;13.384;2023-04-15T06:49:11;17.40;;;14.47;;
10162;SDS011;5123;52.556;13.384;2023-04-15T06:51:46;16.47;;;13.80;;
10162;SDS011;5123;52.556;13.384;2023-04-15T06:54:21;16.83;;;14.97;;
10162;SDS011;5123;52.556;13.384;2023-04-15T06:56:54;14.67;;;13.03;;
10162;SDS011;5123;52.556;13.384;2023-04-15T06:59:27;15.23;;;13.63;;
10162;SDS011;5123;52.556;13.384;2023-04-15T07:02:00;15.83;;;14.13;;
10162;SDS011;5123;52.556;13.384;2023-04-15T07:04:37;15.40;;;13.80;;
10162;SDS011;5123;52.556;13.384;2023-04-15T07:07:12;16.10;;;13.73;;
10162;SDS011;5123;52.556;13.384;2023-04-15T07:09:45;15.47;;;13.70;;
10162;SDS011;5123;52.556;13.384;2023-04-15T07:12:21;15.63;;;13.23;;
10162;SDS011;5123;52.556;13.384;2023-04-15T07:14:54;13.13;;;11.73;;
10162;SDS011;5123;52.556;13.384;2023-04-15T07:17:27;13.43;;;12.03;;
10162;SDS011;5123;52.556;13.384;2023-04-15T07:20:01;14.80;;;12.33;;
10162;SDS011;5123;52.556;13.384;2023-04-15T07:22:34;15.43;;;12.97;;
10162;SDS011;5123;52.556;13.384;2023-04-15T07:25:07;13.73;;;12.37;;
10162;SDS011;5123;52.556;13.384;2023-04-15T07:27:40;15.37;;;12.83;;
10162;SDS011;5123;52.556;13.384;2023-04-15T07:30:13;16.03;;;13.13;;
10162;SDS011;5123;52.556;13.384;2023-04-15T07:32:46;14.40;;;12.90;;
10162;SDS011;5123;52.556;13.384;2023-04-15T07:35:20;13.80;;;12.37;;
10162;SDS011;5123;52.556;13.384;2023-04-15T07:37:53;14.20;;;12.77;;
10162;SDS011;5123;52.556;13.384;2023-04-15T07:40:26;14.23;;;12.83;;
10162;SDS011;5123;52.556;13.384;2023-04-15T07:43:00;20.10;;;13.40;;
10162;SDS011;5123;52.556;13.384;2023-04-15T07:45:33;14.80;;;13.40;;
10162;SDS011;5123;52.556;13.384;2023-04-15T07:48:06;15.60;;;14.00;;
10162;SDS011;5123;52.556;13.384;2023-04-15T07:50:40;16.00;;;14.30;;
10162;SDS011;5123;52.556;13.384;2023-04-15T07:53:13;14.80;;;13.30;;
10162;SDS011;5123;52.556;13.384;2023-04-15T07:55:48;15.07;;;13.57;;
10162;SDS011;5123;52.556;13.384;2023-04-15T07:58:21;15.10;;;13.50;;
10162;SDS011;5123;52.556;13.384;2023-04-15T08:00:54;15.57;;;14.07;;
10162;SDS011;5123;52.556;13.384;2023-04-15T08:03:27;16.03;;;13.83;;
10162;SDS011;5123;52.556;13.384;2023-04-15T08:06:02;16.60;;;14.10;;
10162;SDS011;5123;52.556;13.384;2023-04-15T08:08:35;15.70;;;13.97;;
10162;SDS011;5123;52.556;13.384;2023-04-15T08:11:08;16.27;;;14.57;;
10162;SDS011;5123;52.556;13.384;2023-04-15T08:13:41;15.07;;;13.47;;
10162;SDS011;5123;52.556;13.384;2023-04-15T08:16:17;15.03;;;13.43;;
10162;SDS011;5123;52.556;13.384;2023-04-15T08:18:51;15.43;;;13.83;;
10162;SDS011;5123;52.556;13.384;2023-04-15T08:21:28;17.23;;;15.03;;
10162;SDS011;5123;52.556;13.384;2023-04-15T08:24:02;15.57;;;13.90;;
10162;SDS011;5123;52.556;13.384;2023-04-15T08:26:35;15.80;;;14.20;;
10162;SDS011;5123;52.556;13.384;2023-04-15T08:29:08;16.37;;;14.63;;
10162;SDS011;5123;52.556;13.384;2023-04-15T08:31:41;15.73;;;14.17;;
10162;SDS011;5123;52.556;13.384;2023-04-15T08:34:14;14.97;;;13.47;;
10162;SDS011;5123;52.556;13.384;2023-04-15T08:36:48;15.73;;;14.13;;
10162;SDS011;5123;52.556;13.384;2023-04-15T08:39:21;16.27;;;14.67;;
10162;SDS011;5123;52.556;13.384;2023-04-15T08:41:55;16.60;;;14.53;;
10162;SDS011;5123;52.556;13.384;2023-04-15T08:44:29;16.43;;;14.63;;
10162;SDS011;5123;52.556;13.384;2023-04-15T08:47:02;15.43;;;13.90;;
10162;SDS011;5123;52.556;13.384;2023-04-15T08:49:38;17.77;;;15.87;;
10162;SDS011;5123;52.556;13.384;2023-04-15T08:52:12;17.87;;;14.80;;
10162;SDS011;5123;52.556;13.384;2023-04-15T08:54:46;16.87;;;15.07;;
10162;SDS011;5123;52.556;13.384;2023-04-15T08:57:19;17.10;;;14.93;;
10162;SDS011;5123;52.556;13.384;2023-04-15T08:59:52;16.83;;;15.10;;
10162;SDS011;5123;52.556;13.384;2023-04-15T09:02:25;17.70;;;14.33;;
10162;SDS011;5123;52.556;13.384;2023-04-15T09:04:59;16.13;;;14.53;;
10162;SDS011;5123;52.556;13.384;2023-04-15T09:07:36;17.60;;;15.20;;
10162;SDS011;5123;52.556;13.384;2023-04-15T09:10:09;16.13;;;14.53;;
10162;SDS011;5123;52.556;13.384;2023-04-15T09:12:43;16.63;;;14.93;;
10162;SDS011;5123;52.556;13.384;2023-04-15T09:15:16;16.67;;;14.87;;
10162;SDS011;5123;52.556;13.384;2023-04-15T09:17:49;16.87;;;14.33;;
10162;SDS011;5123;52.556;13.384;2023-04-15T09:20:23;19.20;;;15.33;;
10162;SDS011;5123;52.556;13.384;2023-04-15T09:22:57;16.00;;;14.30;;
10162;SDS011;5123;52.556;13.384;2023-04-15T09:25:30;16.17;;;14.50;;
10162;SDS011;5123;52.556;13.384;2023-04-15T09:28:05;16.10;;;14.50;;
10162;SDS011;5123;52.556;13.384;2023-04-15T09:30:38;16.40;;;14.70;;
10162;SDS011;5123;52.556;13.384;2023-04-15T09:33:16;15.90;;;14.30;;
10162;SDS011;5123;52.556;13.384;2023-04-15T09:35:56;15.83;;;14.23;;
10162;SDS011;5123;52.556;13.384;2023-04-15T09:38:31;16.63;;;14.93;;
10162;SDS011;5123;52.556;13.384;2023-04-15T09:41:04;15.47;;;13.90;;
10162;SDS011;5123;52.556;13.384;2023-04-15T09:43:50;16.37;;;13.73;;
10162;SDS011;5123;52.556;13.384;2023-04-15T09:49:10;15.10;;;13.57;;
10162;SDS011;5123;52.556;13.384;2023-04-15T09:51:44;16.03;;;14.33;;
10162;SDS011;5123;52.556;13.384;2023-04-15T09:54:36;16.27;;;13.80;;
10162;SDS011;5123;52.556;13.384;2023-04-15T09:57:09;16.67;;;14.70;;
10162;SDS011;5123;52.556;13.384;2023-04-15T09:59:42;16.07;;;14.40;;
10162;SDS011;5123;52.556;13.384;2023-04-15T10:02:15;16.07;;;14.33;;
10162;SDS011;5123;52.556;13.384;2023-04-15T10:04:50;17.13;;;14.37;;
10162;SDS011;5123;52.556;13.384;2023-04-15T10:07:24;16.00;;;14.30;;
10162;SDS011;5123;52.556;13.384;2023-04-15T10:09:58;15.63;;;14.03;;
10162;SDS011;5123;52.556;13.384;2023-04-15T10:12:32;17.63;;;15.67;;
10162;SDS011;5123;52.556;13.384;2023-04-15T10:15:06;18.50;;;15.30;;
10162;SDS011;5123;52.556;13.384;2023-04-15T10:17:42;16.53;;;14.93;;
10162;SDS011;5123;52.556;13.384;2023-04-15T10:20:15;16.13;;;14.20;;
10162;SDS011;5123;52.556;13.384;2023-04-15T10:22:53;17.73;;;15.13;;
10162;SDS011;5123;52.556;13.384;2023-04-15T10:25:27;16.47;;;14.73;;
10162;SDS011;5123;52.556;13.384;2023-04-15T10:28:01;16.30;;;14.70;;
10162;SDS011;5123;52.556;13.384;2023-04-15T10:30:34;16.00;;;14.30;;
10162;SDS011;5123;52.556;13.384;2023-04-15T10:33:08;17.87;;;15.97;;
10162;SDS011;5123;52.556;13.384;2023-04-15T10:35:41;16.30;;;14.60;;
10162;SDS011;5123;52.556;13.384;2023-04-15T10:38:31;17.27;;;14.83;;
10162;SDS011;5123;52.556;13.384;2023-04-15T10:41:12;16.63;;;14.93;;
10162;SDS011;5123;52.556;13.384;2023-04-15T10:43:50;17.27;;;15.00;;
10162;SDS011;5123;52.556;13.384;2023-04-15T10:46:32;16.17;;;14.47;;
10162;SDS011;5123;52.556;13.384;2023-04-15T10:49:07;16.87;;;15.17;;
10162;SDS011;5123;52.556;13.384;2023-04-15T10:51:42;16.83;;;14.40;;
10162;SDS011;5123;52.556;13.384;2023-04-15T10:54:15;17.47;;;15.77;;
10162;SDS011;5123;52.556;13.384;2023-04-15T10:56:51;17.10;;;14.77;;
10162;SDS011;5123;52.556;13.384;2023-04-15T10:59:24;16.53;;;14.37;;
10162;SDS011;5123;52.556;13.384;2023-04-15T11:01:59;15.80;;;14.30;;
10162;SDS011;5123;52.556;13.384;2023-04-15T11:04:51;17.00;;;15.20;;
10162;SDS011;5123;52.556;13.384;2023-04-15T11:07:34;16.20;;;14.60;;
10162;SDS011;5123;52.556;13.384;2023-04-15T11:13:01;16.60;;;14.90;;
10162;SDS011;5123;52.556;13.384;2023-04-15T11:15:35;16.33;;;14.73;;
10162;SDS011;5123;52.556;13.384;2023-04-15T11:18:08;16.50;;;14.80;;
10162;SDS011;5123;52.556;13.384;2023-04-15T11:20:42;15.90;;;14.30;;
10162;SDS011;5123;52.556;13.384;2023-04-15T11:23:16;16.97;;;15.17;;
10162;SDS011;5123;52.556;13.384;2023-04-15T11:25:49;16.10;;;14.60;;
10162;SDS011;5123;52.556;13.384;2023-04-15T11:28:27;16.40;;;14.63;;
10162;SDS011;5123;52.556;13.384;2023-04-15T11:31:04;15.27;;;13.67;;
10162;SDS011;5123;52.556;13.384;2023-04-15T11:33:38;14.83;;;13.33;;
10162;SDS011;5123;52.556;13.384;2023-04-15T11:36:19;14.70;;;13.20;;
10162;SDS011;5123;52.556;13.384;2023-04-15T11:38:52;14.90;;;13.40;;
10162;SDS011;5123;52.556;13.384;2023-04-15T11:41:26;16.03;;;14.30;;
10162;SDS011;5123;52.556;13.384;2023-04-15T11:44:01;14.80;;;13.20;;
10162;SDS011;5123;52.556;13.384;2023-04-15T11:46:34;14.73;;;13.20;;
10162;SDS011;5123;52.556;13.384;2023-04-15T11:49:10;15.50;;;13.53;;
10162;SDS011;5123;52.556;13.384;2023-04-15T11:51:45;14.17;;;12.77;;
10162;SDS011;5123;52.556;13.384;2023-04-15T11:54:18;17.87;;;14.07;;
10162;SDS011;5123;52.556;13.384;2023-04-15T11:56:51;15.97;;;14.00;;
10162;SDS011;5123;52.556;13.384;2023-04-15T11:59:26;14.37;;;12.97;;
10162;SDS011;5123;52.556;13.384;2023-04-15T12:02:16;14.77;;;13.27;;
10162;SDS011;5123;52.556;13.384;2023-04-15T12:04:49;15.17;;;13.67;;
10162;SDS011;5123;52.556;13.384;2023-04-15T12:07:22;14.20;;;12.57;;
10162;SDS011;5123;52.556;13.384;2023-04-15T12:09:56;15.40;;;13.70;;
10162;SDS011;5123;52.556;13.384;2023-04-15T12:12:29;15.57;;;13.70;;
10162;SDS011;5123;52.556;13.384;2023-04-15T12:15:04;15.17;;;13.10;;
10162;SDS011;5123;52.556;13.384;2023-04-15T12:17:41;15.37;;;13.77;;
10162;SDS011;5123;52.556;13.384;2023-04-15T12:20:24;15.10;;;13.50;;
10162;SDS011;5123;52.556;13.384;2023-04-15T12:23:04;15.07;;;13.23;;
10162;SDS011;5123;52.556;13.384;2023-04-15T12:25:37;14.33;;;12.93;;
10162;SDS011;5123;52.556;13.384;2023-04-15T12:28:10;14.47;;;12.60;;
10162;SDS011;5123;52.556;13.384;2023-04-15T12:30:49;14.47;;;13.07;;
10162;SDS011;5123;52.556;13.384;2023-04-15T12:33:23;14.50;;;13.00;;
10162;SDS011;5123;52.556;13.384;2023-04-15T12:35:56;14.03;;;12.47;;
10162;SDS011;5123;52.556;13.384;2023-04-15T12:38:29;15.43;;;12.87;;
10162;SDS011;5123;52.556;13.384;2023-04-15T12:41:05;14.33;;;13.03;;
10162;SDS011;5123;52.556;13.384;2023-04-15T12:43:38;15.27;;;13.67;;
10162;SDS011;5123;52.556;13.384;2023-04-15T12:46:14;14.30;;;12.80;;
10162;SDS011;5123;52.556;13.384;2023-04-15T12:48:47;14.47;;;12.93;;
10162;SDS011;5123;52.556;13.384;2023-04-15T12:51:20;14.33;;;12.93;;
10162;SDS011;5123;52.556;13.384;2023-04-15T12:53:53;14.90;;;13.50;;
10162;SDS011;5123;52.556;13.384;2023-04-15T12:56:25;14.53;;;13.07;;
10162;SDS011;5123;52.556;13.384;2023-04-15T12:58:58;16.20;;;14.43;;
10162;SDS011;5123;52.556;13.384;2023-04-15T13:01:35;14.70;;;13.20;;
10162;SDS011;5123;52.556;13.384;2023-04-15T13:04:08;13.97;;;12.50;;
10162;SDS011;5123;52.556;13.384;2023-04-15T13:06:44;14.77;;;13.27;;
10162;SDS011;5123;52.556;13.384;2023-04-15T13:09:17;14.10;;;12.80;;
10162;SDS011;5123;52.556;13.384;2023-04-15T13:11:50;14.27;;;12.77;;
10162;SDS011;5123;52.556;13.384;2023-04-15T13:14:24;14.07;;;12.57;;
10162;SDS011;5123;52.556;13.384;2023-04-15T13:17:01;13.27;;;11.90;;
10162;SDS011;5123;52.556;13.384;2023-04-15T13:19:39;14.67;;;13.20;;
10162;SDS011;5123;52.556;13.384;2023-04-15T13:22:12;14.93;;;13.53;;
10162;SDS011;5123;52.556;13.384;2023-04-15T13:24:47;13.10;;;11.67;;
10162;SDS011;5123;52.556;13.384;2023-04-15T13:27:20;12.80;;;11.53;;
10162;SDS011;5123;52.556;13.384;2023-04-15T13:29:55;12.80;;;11.50;;
10162;SDS011;5123;52.556;13.384;2023-04-15T13:32:29;14.67;;;13.27;;
10162;SDS011;5123;52.556;13.384;2023-04-15T13:35:04;13.30;;;11.90;;
10162;SDS011;5123;52.556;13.384;2023-04-15T13:37:43;13.23;;;11.63;;
10162;SDS011;5123;52.556;13.384;2023-04-15T13:40:15;14.63;;;13.23;;
10162;SDS011;5123;52.556;13.384;2023-04-15T13:42:49;13.60;;;11.90;;
10162;SDS011;5123;52.556;13.384;2023-04-15T13:45:24;14.10;;;12.70;;
10162;SDS011;5123;52.556;13.384;2023-04-15T13:47:59;13.33;;;12.00;;
10162;SDS011;5123;52.556;13.384;2023-04-15T13:50:33;14.33;;;12.20;;
10162;SDS011;5123;52.556;13.384;2023-04-15T13:53:06;13.67;;;12.27;;
10162;SDS011;5123;52.556;13.384;2023-04-15T13:55:39;14.57;;;13.23;;
10162;SDS011;5123;52.556;13.384;2023-04-15T13:58:13;15.23;;;13.37;;
10162;SDS011;5123;52.556;13.384;2023-04-15T14:00:46;14.87;;;13.30;;
10162;SDS011;5123;52.556;13.384;2023-04-15T14:03:21;14.67;;;13.17;;
10162;SDS011;5123;52.556;13.384;2023-04-15T14:05:54;13.97;;;12.57;;
10162;SDS011;5123;52.556;13.384;2023-04-15T14:08:28;14.17;;;12.80;;
10162;SDS011;5123;52.556;13.384;2023-04-15T14:11:01;15.63;;;13.50;;
10162;SDS011;5123;52.556;13.384;2023-04-15T14:13:34;14.47;;;13.03;;
10162;SDS011;5123;52.556;13.384;2023-04-15T14:16:07;15.17;;;13.57;;
10162;SDS011;5123;52.556;13.384;2023-04-15T14:18:42;15.23;;;13.63;;
10162;SDS011;5123;52.556;13.384;2023-04-15T14:21:16;14.40;;;12.90;;
10162;SDS011;5123;52.556;13.384;2023-04-15T14:23:49;14.03;;;12.63;;
10162;SDS011;5123;52.556;13.384;2023-04-15T14:26:21;14.50;;;13.03;;
10162;SDS011;5123;52.556;13.384;2023-04-15T14:28:54;15.60;;;14.10;;
10162;SDS011;5123;52.556;13.384;2023-04-15T14:31:28;15.47;;;13.87;;
10162;SDS011;5123;52.556;13.384;2023-04-15T14:34:02;14.63;;;13.13;;
10162;SDS011;5123;52.556;13.384;2023-04-15T14:36:35;14.03;;;12.70;;
10162;SDS011;5123;52.556;13.384;2023-04-15T14:39:08;17.60;;;12.47;;
10162;SDS011;5123;52.556;13.384;2023-04-15T14:41:43;13.23;;;11.93;;
10162;SDS011;5123;52.556;13.384;2023-04-15T14:44:16;13.43;;;12.00;;
10162;SDS011;5123;52.556;13.384;2023-04-15T14:46:49;13.33;;;11.93;;
10162;SDS011;5123;52.556;13.384;2023-04-15T14:49:23;14.53;;;13.13;;
10162;SDS011;5123;52.556;13.384;2023-04-15T14:51:56;12.17;;;10.93;;
10162;SDS011;5123;52.556;13.384;2023-04-15T14:54:29;12.97;;;11.57;;
10162;SDS011;5123;52.556;13.384;2023-04-15T14:57:02;11.33;;;10.27;;
10162;SDS011;5123;52.556;13.384;2023-04-15T14:59:35;10.63;;;9.63;;
10162;SDS011;5123;52.556;13.384;2023-04-15T15:02:08;10.83;;;9.73;;
10162;SDS011;5123;52.556;13.384;2023-04-15T15:04:59;12.27;;;10.77;;
10162;SDS011;5123;52.556;13.384;2023-04-15T15:07:32;12.37;;;11.17;;